Lewisburg, Tennessee
Current Conditions -  °F | °C
As of 12:55 AM on Monday 24 Nov 2014 (Local Time) from KSYI Reporting Station
Overcast Overcast  
Wind Chill: 63°   Ceiling: 2700
Heat Index: 63°   Visibility: 10mi
Dew Point: 57°   Wind: 18mph
Humidity: 82%   Direction: 190°S
Pressure: 29.55"   Gusts: 35mph
Location:  35.45°N, 86.79°W
Report Text: KSYI 240655Z AUTO 19016G30KT 10SM BKN027 BKN036 OVC050 17/14 A2955 RMK
Loading
Personal Weather Stations






























Interactive Weather Map New forecast layout! Learn more

10-Day Weather Forecast

Advertisements
Track Severe Weather on mobile